Terminal Aerodrome Forecast
Issued by NWS

Home | Current Version | Previous Version | Text Only | Print | Product List | Glossary On
Versions: 1 2 3 4 5 6 7 8 9 10 11 12 13 14 15 16 17 18 19 20 21 22 23 24 25 26 27 28 29 30 31 32 33 34 35 36 37 38 39 40 41 42
000
FTUS46 KPQR 281737
TAFONP
TAF
KONP 281737Z 2818/2918 21017G29KT 4SM -RA BR SCT008 BKN012 OVC025
     FM282200 24015G25KT 3SM RA BR SCT008 BKN012 OVC020
     FM290400 30012G22KT P6SM -SHRA SCT015 BKN020 OVC040
     FM290900 30012KT P6SM -SHRA SCT025 BKN035 BKN045=

USA.gov is the U.S. government's official web portal to all federal, state and local government web resources and services.